sensor_id;sensor_type;location;lat;lon;timestamp;pressure;altitude;pressure_sealevel;temperature;humidity
48790;BME280;41718;51.980;5.734;2023-07-20T00:03:11;101172.75;;;15.19;100.00
48790;BME280;41718;51.980;5.734;2023-07-20T00:08:18;101168.41;;;15.24;100.00
48790;BME280;41718;51.980;5.734;2023-07-20T00:13:20;101171.91;;;15.10;100.00
48790;BME280;41718;51.980;5.734;2023-07-20T00:18:22;101170.13;;;15.02;100.00
48790;BME280;41718;51.980;5.734;2023-07-20T00:23:23;101172.75;;;15.13;100.00
48790;BME280;41718;51.980;5.734;2023-07-20T00:28:25;101168.41;;;14.99;100.00
48790;BME280;41718;51.980;5.734;2023-07-20T00:33:27;101169.22;;;14.84;100.00
48790;BME280;41718;51.980;5.734;2023-07-20T00:38:28;101175.28;;;14.85;100.00
48790;BME280;41718;51.980;5.734;2023-07-20T00:43:30;101186.59;;;14.81;100.00
48790;BME280;41718;51.980;5.734;2023-07-20T00:48:31;101186.50;;;14.61;100.00
48790;BME280;41718;51.980;5.734;2023-07-20T00:53:33;101196.13;;;14.80;100.00
48790;BME280;41718;51.980;5.734;2023-07-20T00:58:35;101190.91;;;14.76;100.00
48790;BME280;41718;51.980;5.734;2023-07-20T01:03:37;101190.88;;;14.64;100.00
48790;BME280;41718;51.980;5.734;2023-07-20T01:09:01;101193.47;;;14.61;100.00
48790;BME280;41718;51.980;5.734;2023-07-20T01:14:04;101207.31;;;14.56;100.00
48790;BME280;41718;51.980;5.734;2023-07-20T01:19:06;101204.69;;;14.50;100.00
48790;BME280;41718;51.980;5.734;2023-07-20T01:24:25;101203.78;;;14.42;100.00
48790;BME280;41718;51.980;5.734;2023-07-20T01:29:49;101204.59;;;14.38;100.00
48790;BME280;41718;51.980;5.734;2023-07-20T01:34:56;101213.28;;;14.37;100.00
48790;BME280;41718;51.980;5.734;2023-07-20T01:39:59;101216.69;;;14.28;100.00
48790;BME280;41718;51.980;5.734;2023-07-20T01:45:01;101213.13;;;14.08;100.00
48790;BME280;41718;51.980;5.734;2023-07-20T01:50:03;101202.75;;;14.13;100.00
48790;BME280;41718;51.980;5.734;2023-07-20T01:55:05;101202.72;;;14.10;100.00
48790;BME280;41718;51.980;5.734;2023-07-20T02:00:07;101213.09;;;14.03;100.00
48790;BME280;41718;51.980;5.734;2023-07-20T02:05:11;101211.31;;;13.96;100.00
48790;BME280;41718;51.980;5.734;2023-07-20T02:10:12;101215.59;;;13.90;100.00
48790;BME280;41718;51.980;5.734;2023-07-20T02:15:14;101221.56;;;13.78;100.00
48790;BME280;41718;51.980;5.734;2023-07-20T02:20:17;101220.59;;;13.67;100.00
48790;BME280;41718;51.980;5.734;2023-07-20T02:25:20;101224.97;;;13.68;100.00
48790;BME280;41718;51.980;5.734;2023-07-20T02:30:22;101224.81;;;13.52;100.00
48790;BME280;41718;51.980;5.734;2023-07-20T02:35:24;101225.78;;;13.62;100.00
48790;BME280;41718;51.980;5.734;2023-07-20T02:40:25;101223.84;;;13.40;100.00
48790;BME280;41718;51.980;5.734;2023-07-20T02:45:27;101214.31;;;13.40;100.00
48790;BME280;41718;51.980;5.734;2023-07-20T02:50:28;101216.81;;;13.30;100.00
48790;BME280;41718;51.980;5.734;2023-07-20T02:55:30;101235.06;;;13.36;100.00
48790;BME280;41718;51.980;5.734;2023-07-20T03:00:31;101239.25;;;13.21;100.00
48790;BME280;41718;51.980;5.734;2023-07-20T03:05:33;101240.16;;;13.26;100.00
48790;BME280;41718;51.980;5.734;2023-07-20T03:10:39;101240.81;;;13.10;100.00
48790;BME280;41718;51.980;5.734;2023-07-20T03:15:41;101241.63;;;13.03;100.00
48790;BME280;41718;51.980;5.734;2023-07-20T03:20:43;101248.59;;;13.09;100.00
48790;BME280;41718;51.980;5.734;2023-07-20T03:25:44;101256.25;;;12.93;100.00
48790;BME280;41718;51.980;5.734;2023-07-20T03:30:46;101246.72;;;12.95;100.00
48790;BME280;41718;51.980;5.734;2023-07-20T03:35:48;101247.59;;;12.96;100.00
48790;BME280;41718;51.980;5.734;2023-07-20T03:45:52;101249.94;;;12.74;100.00
48790;BME280;41718;51.980;5.734;2023-07-20T03:50:54;101247.19;;;12.64;100.00
48790;BME280;41718;51.980;5.734;2023-07-20T03:55:55;101255.91;;;12.66;100.00
48790;BME280;41718;51.980;5.734;2023-07-20T04:00:57;101264.41;;;12.57;100.00
48790;BME280;41718;51.980;5.734;2023-07-20T04:05:59;101261.75;;;12.51;100.00
48790;BME280;41718;51.980;5.734;2023-07-20T04:11:02;101256.66;;;12.59;100.00
48790;BME280;41718;51.980;5.734;2023-07-20T04:16:04;101260.16;;;12.59;100.00
48790;BME280;41718;51.980;5.734;2023-07-20T04:21:07;101266.84;;;12.45;100.00
48790;BME280;41718;51.980;5.734;2023-07-20T04:26:09;101271.41;;;12.60;100.00
48790;BME280;41718;51.980;5.734;2023-07-20T04:31:15;101281.94;;;12.73;100.00
48790;BME280;41718;51.980;5.734;2023-07-20T04:36:17;101279.56;;;12.90;100.00
48790;BME280;41718;51.980;5.734;2023-07-20T04:41:21;101281.44;;;13.04;100.00
48790;BME280;41718;51.980;5.734;2023-07-20T04:46:23;101287.50;;;13.04;100.00
48790;BME280;41718;51.980;5.734;2023-07-20T04:51:25;101292.59;;;12.93;100.00
48790;BME280;41718;51.980;5.734;2023-07-20T04:56:27;101291.63;;;12.85;100.00
48790;BME280;41718;51.980;5.734;2023-07-20T05:01:28;101284.81;;;12.95;100.00
48790;BME280;41718;51.980;5.734;2023-07-20T05:06:30;101278.09;;;13.11;100.00
48790;BME280;41718;51.980;5.734;2023-07-20T05:11:31;101283.69;;;13.46;100.00
48790;BME280;41718;51.980;5.734;2023-07-20T05:16:33;101281.38;;;13.78;100.00
48790;BME280;41718;51.980;5.734;2023-07-20T05:21:34;101287.44;;;13.77;100.00
48790;BME280;41718;51.980;5.734;2023-07-20T05:26:36;101282.38;;;13.91;100.00
48790;BME280;41718;51.980;5.734;2023-07-20T05:31:37;101284.16;;;13.98;100.00
48790;BME280;41718;51.980;5.734;2023-07-20T05:36:39;101290.19;;;13.94;100.00
48790;BME280;41718;51.980;5.734;2023-07-20T05:41:41;101290.31;;;14.09;100.00
48790;BME280;41718;51.980;5.734;2023-07-20T05:46:42;101296.47;;;14.23;100.00
48790;BME280;41718;51.980;5.734;2023-07-20T05:51:58;101293.88;;;14.20;100.00
48790;BME280;41718;51.980;5.734;2023-07-20T05:56:59;101310.69;;;14.64;100.00
48790;BME280;41718;51.980;5.734;2023-07-20T06:02:01;101310.75;;;14.82;100.00
48790;BME280;41718;51.980;5.734;2023-07-20T06:07:02;101316.91;;;14.93;100.00
48790;BME280;41718;51.980;5.734;2023-07-20T06:12:04;101334.34;;;15.11;100.00
48790;BME280;41718;51.980;5.734;2023-07-20T06:17:06;101339.69;;;15.43;100.00
48790;BME280;41718;51.980;5.734;2023-07-20T06:22:07;101347.56;;;15.71;100.00
48790;BME280;41718;51.980;5.734;2023-07-20T06:27:09;101349.38;;;16.13;100.00
48790;BME280;41718;51.980;5.734;2023-07-20T06:32:10;101366.72;;;15.88;100.00
48790;BME280;41718;51.980;5.734;2023-07-20T06:37:12;101376.34;;;16.18;100.00
48790;BME280;41718;51.980;5.734;2023-07-20T06:42:13;101389.38;;;16.85;100.00
48790;BME280;41718;51.980;5.734;2023-07-20T06:47:15;101388.50;;;16.77;100.00
48790;BME280;41718;51.980;5.734;2023-07-20T06:52:16;101382.38;;;16.95;100.00
48790;BME280;41718;51.980;5.734;2023-07-20T06:57:18;101376.97;;;17.44;100.00
48790;BME280;41718;51.980;5.734;2023-07-20T07:02:20;101364.84;;;17.21;100.00
48790;BME280;41718;51.980;5.734;2023-07-20T07:07:21;101353.44;;;17.38;100.00
48790;BME280;41718;51.980;5.734;2023-07-20T07:12:26;101342.13;;;17.33;100.00
48790;BME280;41718;51.980;5.734;2023-07-20T07:17:27;101342.84;;;17.62;100.00
48790;BME280;41718;51.980;5.734;2023-07-20T07:22:29;101342.28;;;17.04;100.00
48790;BME280;41718;51.980;5.734;2023-07-20T07:27:32;101354.50;;;16.89;100.00
48790;BME280;41718;51.980;5.734;2023-07-20T07:32:33;101345.84;;;16.72;100.00
48790;BME280;41718;51.980;5.734;2023-07-20T07:37:35;101341.47;;;16.86;100.00
48790;BME280;41718;51.980;5.734;2023-07-20T07:42:47;101343.66;;;17.77;100.00
48790;BME280;41718;51.980;5.734;2023-07-20T07:47:49;101351.53;;;17.72;100.00
48790;BME280;41718;51.980;5.734;2023-07-20T07:52:50;101342.59;;;18.02;100.00
48790;BME280;41718;51.980;5.734;2023-07-20T07:57:52;101341.75;;;17.97;100.00
48790;BME280;41718;51.980;5.734;2023-07-20T08:02:53;101353.53;;;17.26;100.00
48790;BME280;41718;51.980;5.734;2023-07-20T08:07:55;101359.66;;;17.12;100.00
48790;BME280;41718;51.980;5.734;2023-07-20T08:12:57;101366.63;;;17.07;100.00
48790;BME280;41718;51.980;5.734;2023-07-20T08:17:58;101354.38;;;17.31;100.00
48790;BME280;41718;51.980;5.734;2023-07-20T08:23:00;101356.78;;;17.67;100.00
48790;BME280;41718;51.980;5.734;2023-07-20T08:28:02;101352.81;;;18.34;100.00
48790;BME280;41718;51.980;5.734;2023-07-20T08:33:03;101349.88;;;18.69;100.00
48790;BME280;41718;51.980;5.734;2023-07-20T08:38:06;101350.22;;;18.30;100.00
48790;BME280;41718;51.980;5.734;2023-07-20T08:43:13;101347.75;;;18.16;100.00
48790;BME280;41718;51.980;5.734;2023-07-20T08:48:15;101339.97;;;18.96;100.00
48790;BME280;41718;51.980;5.734;2023-07-20T08:53:17;101334.78;;;19.56;100.00
48790;BME280;41718;51.980;5.734;2023-07-20T08:58:19;101322.09;;;19.89;100.00
48790;BME280;41718;51.980;5.734;2023-07-20T09:03:21;101386.09;;;19.14;100.00
48790;BME280;41718;51.980;5.734;2023-07-20T09:08:23;101387.94;;;19.73;100.00
48790;BME280;41718;51.980;5.734;2023-07-20T09:13:27;101382.88;;;18.90;100.00
48790;BME280;41718;51.980;5.734;2023-07-20T09:18:31;101376.78;;;19.57;100.00
48790;BME280;41718;51.980;5.734;2023-07-20T09:23:35;101379.66;;;19.38;100.00
48790;BME280;41718;51.980;5.734;2023-07-20T09:28:48;101388.16;;;18.83;100.00
48790;BME280;41718;51.980;5.734;2023-07-20T09:33:52;101379.81;;;19.25;100.00
48790;BME280;41718;51.980;5.734;2023-07-20T09:38:58;101377.31;;;19.16;100.00
48790;BME280;41718;51.980;5.734;2023-07-20T09:44:03;101375.28;;;20.03;100.00
48790;BME280;41718;51.980;5.734;2023-07-20T09:49:25;101352.69;;;20.44;100.00
48790;BME280;41718;51.980;5.734;2023-07-20T09:54:31;101364.06;;;19.92;100.00
48790;BME280;41718;51.980;5.734;2023-07-20T09:59:34;101351.00;;;19.87;100.00
48790;BME280;41718;51.980;5.734;2023-07-20T10:04:36;101355.13;;;20.03;100.00
48790;BME280;41718;51.980;5.734;2023-07-20T10:09:39;101349.28;;;19.86;100.00
48790;BME280;41718;51.980;5.734;2023-07-20T10:14:51;101335.41;;;19.76;100.00
48790;BME280;41718;51.980;5.734;2023-07-20T10:19:56;101328.47;;;19.72;100.00
48790;BME280;41718;51.980;5.734;2023-07-20T10:24:58;101324.78;;;19.84;100.00
48790;BME280;41718;51.980;5.734;2023-07-20T10:30:00;101329.63;;;20.10;100.00
48790;BME280;41718;51.980;5.734;2023-07-20T10:35:15;101318.13;;;20.67;100.00
48790;BME280;41718;51.980;5.734;2023-07-20T10:51:14;101324.81;;;20.81;100.00
48790;BME280;41718;51.980;5.734;2023-07-20T10:56:22;101326.22;;;20.56;100.00
48790;BME280;41718;51.980;5.734;2023-07-20T11:01:30;101323.13;;;20.31;100.00
48790;BME280;41718;51.980;5.734;2023-07-20T11:06:34;101331.25;;;21.10;100.00
48790;BME280;41718;51.980;5.734;2023-07-20T11:11:38;101336.41;;;20.73;100.00
48790;BME280;41718;51.980;5.734;2023-07-20T11:16:45;101335.34;;;20.33;100.00
48790;BME280;41718;51.980;5.734;2023-07-20T11:21:51;101334.38;;;21.30;100.00
48790;BME280;41718;51.980;5.734;2023-07-20T11:27:03;101323.84;;;21.69;100.00
48790;BME280;41718;51.980;5.734;2023-07-20T11:32:09;101333.13;;;21.84;100.00
48790;BME280;41718;51.980;5.734;2023-07-20T11:37:19;101334.19;;;20.96;100.00
48790;BME280;41718;51.980;5.734;2023-07-20T11:42:24;101327.97;;;20.99;100.00
48790;BME280;41718;51.980;5.734;2023-07-20T11:47:32;101327.88;;;21.03;100.00
48790;BME280;41718;51.980;5.734;2023-07-20T11:52:34;101319.22;;;21.00;100.00
48790;BME280;41718;51.980;5.734;2023-07-20T11:57:37;101310.22;;;21.87;100.00
48790;BME280;41718;51.980;5.734;2023-07-20T12:02:41;101296.69;;;21.65;100.00
48790;BME280;41718;51.980;5.734;2023-07-20T12:07:43;101301.13;;;22.67;100.00
48790;BME280;41718;51.980;5.734;2023-07-20T12:12:47;101293.44;;;22.60;100.00
48790;BME280;41718;51.980;5.734;2023-07-20T12:17:52;101295.31;;;22.87;100.00
48790;BME280;41718;51.980;5.734;2023-07-20T12:23:03;101293.50;;;22.89;100.00
48790;BME280;41718;51.980;5.734;2023-07-20T12:33:13;101282.19;;;23.43;100.00
48790;BME280;41718;51.980;5.734;2023-07-20T12:38:21;101298.81;;;22.24;100.00
48790;BME280;41718;51.980;5.734;2023-07-20T12:43:23;101276.84;;;22.87;100.00
48790;BME280;41718;51.980;5.734;2023-07-20T12:48:24;101283.13;;;22.82;100.00
48790;BME280;41718;51.980;5.734;2023-07-20T12:53:26;101275.94;;;23.74;100.00
48790;BME280;41718;51.980;5.734;2023-07-20T12:58:29;101274.25;;;23.15;100.00
48790;BME280;41718;51.980;5.734;2023-07-20T13:03:31;101276.56;;;22.96;100.00
48790;BME280;41718;51.980;5.734;2023-07-20T13:08:34;101260.94;;;23.46;100.00
48790;BME280;41718;51.980;5.734;2023-07-20T13:13:36;101257.69;;;23.38;100.00
48790;BME280;41718;51.980;5.734;2023-07-20T13:18:38;101247.47;;;23.27;100.00
48790;BME280;41718;51.980;5.734;2023-07-20T13:23:40;101248.66;;;23.17;100.00
48790;BME280;41718;51.980;5.734;2023-07-20T13:28:42;101260.22;;;22.53;100.00
48790;BME280;41718;51.980;5.734;2023-07-20T13:33:45;101256.09;;;22.73;100.00
48790;BME280;41718;51.980;5.734;2023-07-20T13:38:58;101251.78;;;22.71;100.00
48790;BME280;41718;51.980;5.734;2023-07-20T13:44:00;101253.13;;;22.22;100.00
48790;BME280;41718;51.980;5.734;2023-07-20T13:49:02;101257.97;;;22.39;100.00
48790;BME280;41718;51.980;5.734;2023-07-20T13:54:04;101258.41;;;22.22;100.00
48790;BME280;41718;51.980;5.734;2023-07-20T13:59:09;101256.97;;;22.43;100.00
48790;BME280;41718;51.980;5.734;2023-07-20T14:04:10;101247.22;;;22.45;100.00
48790;BME280;41718;51.980;5.734;2023-07-20T14:09:12;101248.84;;;22.51;100.00
48790;BME280;41718;51.980;5.734;2023-07-20T14:14:14;101237.66;;;22.42;100.00
48790;BME280;41718;51.980;5.734;2023-07-20T14:19:15;101238.88;;;22.29;100.00
48790;BME280;41718;51.980;5.734;2023-07-20T14:24:17;101230.38;;;22.19;100.00
48790;BME280;41718;51.980;5.734;2023-07-20T14:29:20;101241.50;;;21.95;100.00
48790;BME280;41718;51.980;5.734;2023-07-20T14:34:26;101229.94;;;21.66;100.00
48790;BME280;41718;51.980;5.734;2023-07-20T14:39:28;101229.56;;;21.82;100.00
48790;BME280;41718;51.980;5.734;2023-07-20T14:44:29;101222.03;;;22.01;100.00
48790;BME280;41718;51.980;5.734;2023-07-20T14:49:31;101208.53;;;21.80;100.00
48790;BME280;41718;51.980;5.734;2023-07-20T14:54:32;101208.78;;;22.38;100.00
48790;BME280;41718;51.980;5.734;2023-07-20T14:59:34;101205.06;;;22.14;100.00
48790;BME280;41718;51.980;5.734;2023-07-20T15:04:35;101209.09;;;22.57;100.00
48790;BME280;41718;51.980;5.734;2023-07-20T15:09:37;101202.91;;;21.94;100.00
48790;BME280;41718;51.980;5.734;2023-07-20T15:14:43;101202.13;;;21.90;100.00
48790;BME280;41718;51.980;5.734;2023-07-20T15:19:44;101191.97;;;22.09;100.00
48790;BME280;41718;51.980;5.734;2023-07-20T15:24:46;101196.88;;;21.55;100.00
48790;BME280;41718;51.980;5.734;2023-07-20T15:29:50;101189.63;;;21.64;100.00
48790;BME280;41718;51.980;5.734;2023-07-20T15:34:52;101197.31;;;21.72;100.00
48790;BME280;41718;51.980;5.734;2023-07-20T15:39:54;101188.63;;;22.03;100.00
48790;BME280;41718;51.980;5.734;2023-07-20T15:44:56;101185.84;;;21.75;100.00
48790;BME280;41718;51.980;5.734;2023-07-20T15:49:57;101172.81;;;21.70;100.00
48790;BME280;41718;51.980;5.734;2023-07-20T15:55:01;101173.00;;;21.62;100.00
48790;BME280;41718;51.980;5.734;2023-07-20T16:00:06;101178.88;;;21.72;100.00
48790;BME280;41718;51.980;5.734;2023-07-20T16:05:11;101173.16;;;21.90;100.00
48790;BME280;41718;51.980;5.734;2023-07-20T16:10:15;101169.34;;;21.68;100.00
48790;BME280;41718;51.980;5.734;2023-07-20T16:15:18;101167.25;;;21.47;100.00
48790;BME280;41718;51.980;5.734;2023-07-20T16:20:22;101174.25;;;21.48;100.00
48790;BME280;41718;51.980;5.734;2023-07-20T16:25:24;101167.75;;;21.25;100.00
48790;BME280;41718;51.980;5.734;2023-07-20T16:30:27;101156.75;;;21.08;100.00
48790;BME280;41718;51.980;5.734;2023-07-20T16:35:29;101157.19;;;20.89;100.00
48790;BME280;41718;51.980;5.734;2023-07-20T16:40:36;101153.22;;;21.10;100.00
48790;BME280;41718;51.980;5.734;2023-07-20T16:45:40;101156.19;;;20.95;100.00
48790;BME280;41718;51.980;5.734;2023-07-20T16:50:44;101157.25;;;20.88;100.00
48790;BME280;41718;51.980;5.734;2023-07-20T16:55:49;101157.06;;;20.96;100.00
48790;BME280;41718;51.980;5.734;2023-07-20T17:01:02;101146.09;;;20.77;100.00
48790;BME280;41718;51.980;5.734;2023-07-20T17:06:05;101151.09;;;20.49;100.00
48790;BME280;41718;51.980;5.734;2023-07-20T17:11:08;101145.88;;;20.46;100.00
48790;BME280;41718;51.980;5.734;2023-07-20T17:16:10;101143.25;;;20.46;100.00
48790;BME280;41718;51.980;5.734;2023-07-20T17:21:12;101153.72;;;20.47;100.00
48790;BME280;41718;51.980;5.734;2023-07-20T17:26:15;101150.75;;;20.21;100.00
48790;BME280;41718;51.980;5.734;2023-07-20T17:31:19;101142.34;;;20.03;100.00
48790;BME280;41718;51.980;5.734;2023-07-20T17:36:21;101151.00;;;20.07;100.00
48790;BME280;41718;51.980;5.734;2023-07-20T17:41:26;101143.22;;;20.04;100.00
48790;BME280;41718;51.980;5.734;2023-07-20T17:46:28;101152.44;;;19.80;100.00
48790;BME280;41718;51.980;5.734;2023-07-20T17:51:33;101153.09;;;19.91;100.00
48790;BME280;41718;51.980;5.734;2023-07-20T17:56:35;101141.94;;;19.78;100.00
48790;BME280;41718;51.980;5.734;2023-07-20T18:01:36;101147.19;;;19.78;100.00
48790;BME280;41718;51.980;5.734;2023-07-20T18:06:38;101146.31;;;19.78;100.00
48790;BME280;41718;51.980;5.734;2023-07-20T18:11:40;101146.22;;;19.31;100.00
48790;BME280;41718;51.980;5.734;2023-07-20T18:16:41;101138.09;;;19.45;100.00
48790;BME280;41718;51.980;5.734;2023-07-20T18:21:43;101144.44;;;19.33;100.00
48790;BME280;41718;51.980;5.734;2023-07-20T18:26:44;101141.00;;;19.30;100.00
48790;BME280;41718;51.980;5.734;2023-07-20T18:31:46;101140.97;;;19.31;100.00
48790;BME280;41718;51.980;5.734;2023-07-20T18:36:48;101136.72;;;19.24;100.00
48790;BME280;41718;51.980;5.734;2023-07-20T18:41:49;101132.50;;;19.14;100.00
48790;BME280;41718;51.980;5.734;2023-07-20T18:46:51;101130.88;;;19.05;100.00
48790;BME280;41718;51.980;5.734;2023-07-20T18:51:52;101137.22;;;18.92;100.00
48790;BME280;41718;51.980;5.734;2023-07-20T18:56:54;101147.19;;;18.67;100.00
48790;BME280;41718;51.980;5.734;2023-07-20T19:01:56;101134.19;;;18.57;100.00
48790;BME280;41718;51.980;5.734;2023-07-20T19:07:04;101138.66;;;18.48;100.00
48790;BME280;41718;51.980;5.734;2023-07-20T19:12:07;101140.56;;;18.39;100.00
48790;BME280;41718;51.980;5.734;2023-07-20T19:17:10;101143.81;;;18.54;100.00
48790;BME280;41718;51.980;5.734;2023-07-20T19:22:12;101152.81;;;18.35;100.00
48790;BME280;41718;51.980;5.734;2023-07-20T19:27:15;101142.41;;;18.29;100.00
48790;BME280;41718;51.980;5.734;2023-07-20T19:32:17;101142.63;;;18.09;100.00
48790;BME280;41718;51.980;5.734;2023-07-20T19:37:19;101147.91;;;18.08;100.00
48790;BME280;41718;51.980;5.734;2023-07-20T19:42:21;101151.50;;;17.97;100.00
48790;BME280;41718;51.980;5.734;2023-07-20T19:47:24;101151.31;;;18.14;100.00
48790;BME280;41718;51.980;5.734;2023-07-20T19:52:26;101160.22;;;17.98;100.00
48790;BME280;41718;51.980;5.734;2023-07-20T19:57:27;101162.91;;;17.92;100.00
48790;BME280;41718;51.980;5.734;2023-07-20T20:02:33;101160.38;;;17.83;100.00
48790;BME280;41718;51.980;5.734;2023-07-20T20:07:38;101164.84;;;17.68;100.00
48790;BME280;41718;51.980;5.734;2023-07-20T20:12:41;101157.09;;;17.59;100.00
48790;BME280;41718;51.980;5.734;2023-07-20T20:17:43;101161.59;;;17.42;100.00
48790;BME280;41718;51.980;5.734;2023-07-20T20:22:45;101160.88;;;17.25;100.00
48790;BME280;41718;51.980;5.734;2023-07-20T20:27:47;101164.56;;;16.93;100.00
48790;BME280;41718;51.980;5.734;2023-07-20T20:32:49;101156.84;;;16.75;100.00
48790;BME280;41718;51.980;5.734;2023-07-20T20:37:51;101146.41;;;16.61;100.00
48790;BME280;41718;51.980;5.734;2023-07-20T20:42:52;101132.50;;;16.56;100.00
48790;BME280;41718;51.980;5.734;2023-07-20T20:47:54;101132.63;;;16.27;100.00
48790;BME280;41718;51.980;5.734;2023-07-20T20:53:06;101118.81;;;16.02;100.00
48790;BME280;41718;51.980;5.734;2023-07-20T20:58:08;101105.81;;;15.82;100.00
48790;BME280;41718;51.980;5.734;2023-07-20T21:03:10;101108.44;;;15.57;100.00
48790;BME280;41718;51.980;5.734;2023-07-20T21:08:12;101100.63;;;15.56;100.00
48790;BME280;41718;51.980;5.734;2023-07-20T21:13:15;101091.94;;;15.40;100.00
48790;BME280;41718;51.980;5.734;2023-07-20T21:18:16;101093.69;;;15.29;100.00
48790;BME280;41718;51.980;5.734;2023-07-20T21:23:18;101089.34;;;15.17;100.00
48790;BME280;41718;51.980;5.734;2023-07-20T21:28:23;101086.75;;;14.96;100.00
48790;BME280;41718;51.980;5.734;2023-07-20T21:33:24;101081.53;;;15.02;100.00
48790;BME280;41718;51.980;5.734;2023-07-20T21:38:26;101085.88;;;15.01;100.00
48790;BME280;41718;51.980;5.734;2023-07-20T21:43:28;101078.94;;;14.99;100.00
48790;BME280;41718;51.980;5.734;2023-07-20T21:48:31;101076.31;;;14.90;100.00
48790;BME280;41718;51.980;5.734;2023-07-20T21:53:32;101066.75;;;14.73;100.00
48790;BME280;41718;51.980;5.734;2023-07-20T21:58:34;101071.94;;;14.55;100.00
48790;BME280;41718;51.980;5.734;2023-07-20T22:03:35;101068.47;;;14.54;100.00
48790;BME280;41718;51.980;5.734;2023-07-20T22:08:37;101066.72;;;14.49;100.00
48790;BME280;41718;51.980;5.734;2023-07-20T22:13:39;101054.59;;;14.65;100.00
48790;BME280;41718;51.980;5.734;2023-07-20T22:18:40;101053.69;;;14.50;100.00
48790;BME280;41718;51.980;5.734;2023-07-20T22:23:42;101056.31;;;14.61;100.00
48790;BME280;41718;51.980;5.734;2023-07-20T22:28:50;101053.72;;;14.58;100.00
48790;BME280;41718;51.980;5.734;2023-07-20T22:33:51;101050.22;;;14.50;100.00
48790;BME280;41718;51.980;5.734;2023-07-20T22:38:54;101051.09;;;14.53;100.00
48790;BME280;41718;51.980;5.734;2023-07-20T22:43:57;101049.28;;;14.37;100.00
48790;BME280;41718;51.980;5.734;2023-07-20T22:49:03;101045.03;;;14.48;100.00
48790;BME280;41718;51.980;5.734;2023-07-20T22:54:05;101039.81;;;14.51;100.00
48790;BME280;41718;51.980;5.734;2023-07-20T22:59:07;101044.19;;;14.65;100.00
48790;BME280;41718;51.980;5.734;2023-07-20T23:04:13;101049.38;;;14.63;100.00
48790;BME280;41718;51.980;5.734;2023-07-20T23:09:15;101044.09;;;14.46;100.00
48790;BME280;41718;51.980;5.734;2023-07-20T23:14:17;101048.50;;;14.53;100.00
48790;BME280;41718;51.980;5.734;2023-07-20T23:19:21;101053.72;;;14.60;100.00
48790;BME280;41718;51.980;5.734;2023-07-20T23:24:24;101048.47;;;14.52;100.00
48790;BME280;41718;51.980;5.734;2023-07-20T23:29:26;101051.97;;;14.49;100.00
48790;BME280;41718;51.980;5.734;2023-07-20T23:34:28;101039.81;;;14.51;100.00
48790;BME280;41718;51.980;5.734;2023-07-20T23:39:30;101044.97;;;14.44;100.00
48790;BME280;41718;51.980;5.734;2023-07-20T23:44:33;101045.00;;;14.51;100.00
48790;BME280;41718;51.980;5.734;2023-07-20T23:49:35;101038.94;;;14.51;100.00
48790;BME280;41718;51.980;5.734;2023-07-20T23:54:37;101031.13;;;14.48;100.00
48790;BME280;41718;51.980;5.734;2023-07-20T23:59:38;101025.00;;;14.44;100.00
